sensor_id;sensor_type;location;lat;lon;timestamp;P1;durP1;ratioP1;P2;durP2;ratioP2
25079;SDS011;13071;48.868;9.996;2023-04-09T00:00:37;19.80;;;9.23;;
25079;SDS011;13071;48.868;9.996;2023-04-09T00:03:04;21.10;;;10.00;;
25079;SDS011;13071;48.868;9.996;2023-04-09T00:05:30;17.73;;;9.55;;
25079;SDS011;13071;48.868;9.996;2023-04-09T00:07:57;19.65;;;9.70;;
25079;SDS011;13071;48.868;9.996;2023-04-09T00:10:23;21.55;;;10.30;;
25079;SDS011;13071;48.868;9.996;2023-04-09T00:12:51;24.38;;;10.63;;
25079;SDS011;13071;48.868;9.996;2023-04-09T00:15:18;19.73;;;9.93;;
25079;SDS011;13071;48.868;9.996;2023-04-09T00:17:44;19.98;;;10.50;;
25079;SDS011;13071;48.868;9.996;2023-04-09T00:20:11;23.15;;;10.45;;
25079;SDS011;13071;48.868;9.996;2023-04-09T00:22:38;22.08;;;10.20;;
25079;SDS011;13071;48.868;9.996;2023-04-09T00:25:05;19.02;;;9.80;;
25079;SDS011;13071;48.868;9.996;2023-04-09T00:27:32;22.83;;;10.38;;
25079;SDS011;13071;48.868;9.996;2023-04-09T00:30:00;20.58;;;9.93;;
25079;SDS011;13071;48.868;9.996;2023-04-09T00:32:26;19.95;;;8.85;;
25079;SDS011;13071;48.868;9.996;2023-04-09T00:34:53;19.17;;;8.70;;
25079;SDS011;13071;48.868;9.996;2023-04-09T00:37:20;20.80;;;9.82;;
25079;SDS011;13071;48.868;9.996;2023-04-09T00:39:46;18.67;;;9.63;;
25079;SDS011;13071;48.868;9.996;2023-04-09T00:42:13;21.65;;;9.48;;
25079;SDS011;13071;48.868;9.996;2023-04-09T00:44:40;19.90;;;8.55;;
25079;SDS011;13071;48.868;9.996;2023-04-09T00:47:08;21.15;;;10.43;;
25079;SDS011;13071;48.868;9.996;2023-04-09T00:49:35;23.23;;;9.30;;
25079;SDS011;13071;48.868;9.996;2023-04-09T00:52:01;21.50;;;10.15;;
25079;SDS011;13071;48.868;9.996;2023-04-09T00:54:28;21.02;;;8.52;;
25079;SDS011;13071;48.868;9.996;2023-04-09T00:56:55;20.10;;;9.85;;
25079;SDS011;13071;48.868;9.996;2023-04-09T00:59:23;23.80;;;9.63;;
25079;SDS011;13071;48.868;9.996;2023-04-09T01:01:50;20.73;;;9.50;;
25079;SDS011;13071;48.868;9.996;2023-04-09T01:04:18;21.48;;;9.35;;
25079;SDS011;13071;48.868;9.996;2023-04-09T01:06:47;17.40;;;8.70;;
25079;SDS011;13071;48.868;9.996;2023-04-09T01:09:17;15.80;;;8.40;;
25079;SDS011;13071;48.868;9.996;2023-04-09T01:11:50;18.30;;;8.77;;
25079;SDS011;13071;48.868;9.996;2023-04-09T01:14:26;16.23;;;8.20;;
25079;SDS011;13071;48.868;9.996;2023-04-09T01:16:59;18.30;;;9.00;;
25079;SDS011;13071;48.868;9.996;2023-04-09T01:19:43;17.05;;;8.13;;
25079;SDS011;13071;48.868;9.996;2023-04-09T01:22:20;16.08;;;8.10;;
25079;SDS011;13071;48.868;9.996;2023-04-09T01:24:59;18.52;;;8.32;;
25079;SDS011;13071;48.868;9.996;2023-04-09T01:27:33;18.77;;;8.85;;
25079;SDS011;13071;48.868;9.996;2023-04-09T01:30:11;20.70;;;9.27;;
25079;SDS011;13071;48.868;9.996;2023-04-09T01:32:40;18.42;;;8.50;;
25079;SDS011;13071;48.868;9.996;2023-04-09T01:35:08;16.77;;;8.30;;
25079;SDS011;13071;48.868;9.996;2023-04-09T01:37:35;20.33;;;8.57;;
25079;SDS011;13071;48.868;9.996;2023-04-09T01:40:04;20.10;;;9.00;;
25079;SDS011;13071;48.868;9.996;2023-04-09T01:42:32;16.15;;;8.38;;
25079;SDS011;13071;48.868;9.996;2023-04-09T01:44:58;20.20;;;8.27;;
25079;SDS011;13071;48.868;9.996;2023-04-09T01:47:28;22.30;;;8.60;;
25079;SDS011;13071;48.868;9.996;2023-04-09T01:49:55;17.85;;;9.35;;
25079;SDS011;13071;48.868;9.996;2023-04-09T01:52:22;18.80;;;9.02;;
25079;SDS011;13071;48.868;9.996;2023-04-09T01:54:49;20.52;;;8.68;;
25079;SDS011;13071;48.868;9.996;2023-04-09T01:57:15;18.35;;;8.88;;
25079;SDS011;13071;48.868;9.996;2023-04-09T01:59:42;19.17;;;8.45;;
25079;SDS011;13071;48.868;9.996;2023-04-09T02:02:09;20.05;;;8.18;;
25079;SDS011;13071;48.868;9.996;2023-04-09T02:04:42;21.27;;;8.93;;
25079;SDS011;13071;48.868;9.996;2023-04-09T02:07:13;16.42;;;8.25;;
25079;SDS011;13071;48.868;9.996;2023-04-09T02:09:44;16.52;;;8.00;;
25079;SDS011;13071;48.868;9.996;2023-04-09T02:12:13;17.35;;;8.60;;
25079;SDS011;13071;48.868;9.996;2023-04-09T02:14:43;17.67;;;8.40;;
25079;SDS011;13071;48.868;9.996;2023-04-09T02:17:11;17.00;;;7.70;;
25079;SDS011;13071;48.868;9.996;2023-04-09T02:19:38;20.20;;;8.90;;
25079;SDS011;13071;48.868;9.996;2023-04-09T02:22:07;20.45;;;8.88;;
25079;SDS011;13071;48.868;9.996;2023-04-09T02:24:34;17.48;;;7.68;;
25079;SDS011;13071;48.868;9.996;2023-04-09T02:27:01;19.23;;;8.38;;
25079;SDS011;13071;48.868;9.996;2023-04-09T02:29:28;15.40;;;7.55;;
25079;SDS011;13071;48.868;9.996;2023-04-09T02:31:55;16.92;;;8.25;;
25079;SDS011;13071;48.868;9.996;2023-04-09T02:34:21;15.43;;;7.82;;
25079;SDS011;13071;48.868;9.996;2023-04-09T02:36:48;17.05;;;8.07;;
25079;SDS011;13071;48.868;9.996;2023-04-09T02:39:16;18.20;;;7.70;;
25079;SDS011;13071;48.868;9.996;2023-04-09T02:41:43;18.75;;;8.18;;
25079;SDS011;13071;48.868;9.996;2023-04-09T02:44:10;17.77;;;8.52;;
25079;SDS011;13071;48.868;9.996;2023-04-09T02:46:37;18.63;;;7.65;;
25079;SDS011;13071;48.868;9.996;2023-04-09T02:49:03;16.10;;;8.10;;
25079;SDS011;13071;48.868;9.996;2023-04-09T02:51:30;17.88;;;8.20;;
25079;SDS011;13071;48.868;9.996;2023-04-09T02:53:56;17.40;;;7.82;;
25079;SDS011;13071;48.868;9.996;2023-04-09T02:56:24;18.08;;;8.23;;
25079;SDS011;13071;48.868;9.996;2023-04-09T02:58:51;16.33;;;8.23;;
25079;SDS011;13071;48.868;9.996;2023-04-09T03:01:18;15.05;;;7.50;;
25079;SDS011;13071;48.868;9.996;2023-04-09T03:03:44;21.20;;;8.82;;
25079;SDS011;13071;48.868;9.996;2023-04-09T03:06:11;20.52;;;8.75;;
25079;SDS011;13071;48.868;9.996;2023-04-09T03:08:38;19.02;;;8.73;;
25079;SDS011;13071;48.868;9.996;2023-04-09T03:11:04;18.27;;;8.48;;
25079;SDS011;13071;48.868;9.996;2023-04-09T03:13:32;20.00;;;8.05;;
25079;SDS011;13071;48.868;9.996;2023-04-09T03:15:59;20.75;;;7.82;;
25079;SDS011;13071;48.868;9.996;2023-04-09T03:18:25;18.65;;;7.75;;
25079;SDS011;13071;48.868;9.996;2023-04-09T03:20:52;20.95;;;8.73;;
25079;SDS011;13071;48.868;9.996;2023-04-09T03:23:18;17.55;;;8.43;;
25079;SDS011;13071;48.868;9.996;2023-04-09T03:25:45;19.13;;;7.97;;
25079;SDS011;13071;48.868;9.996;2023-04-09T03:28:11;18.42;;;8.73;;
25079;SDS011;13071;48.868;9.996;2023-04-09T03:30:39;20.63;;;8.90;;
25079;SDS011;13071;48.868;9.996;2023-04-09T03:33:06;17.13;;;8.10;;
25079;SDS011;13071;48.868;9.996;2023-04-09T03:35:33;18.05;;;7.60;;
25079;SDS011;13071;48.868;9.996;2023-04-09T03:37:59;20.25;;;8.57;;
25079;SDS011;13071;48.868;9.996;2023-04-09T03:40:26;19.42;;;8.57;;
25079;SDS011;13071;48.868;9.996;2023-04-09T03:42:52;21.55;;;9.00;;
25079;SDS011;13071;48.868;9.996;2023-04-09T03:45:19;17.13;;;8.02;;
25079;SDS011;13071;48.868;9.996;2023-04-09T03:47:47;21.77;;;9.23;;
25079;SDS011;13071;48.868;9.996;2023-04-09T03:50:13;21.20;;;9.40;;
25079;SDS011;13071;48.868;9.996;2023-04-09T03:52:40;22.67;;;9.13;;
25079;SDS011;13071;48.868;9.996;2023-04-09T03:55:07;22.83;;;9.23;;
25079;SDS011;13071;48.868;9.996;2023-04-09T03:57:35;20.90;;;8.00;;
25079;SDS011;13071;48.868;9.996;2023-04-09T04:00:01;18.73;;;7.82;;
25079;SDS011;13071;48.868;9.996;2023-04-09T04:02:29;19.48;;;8.38;;
25079;SDS011;13071;48.868;9.996;2023-04-09T04:04:58;16.58;;;7.97;;
25079;SDS011;13071;48.868;9.996;2023-04-09T04:07:25;21.00;;;8.52;;
25079;SDS011;13071;48.868;9.996;2023-04-09T04:09:52;20.42;;;8.15;;
25079;SDS011;13071;48.868;9.996;2023-04-09T04:12:18;18.67;;;8.52;;
25079;SDS011;13071;48.868;9.996;2023-04-09T04:14:45;19.05;;;8.07;;
25079;SDS011;13071;48.868;9.996;2023-04-09T04:17:11;17.20;;;8.02;;
25079;SDS011;13071;48.868;9.996;2023-04-09T04:19:38;16.92;;;8.02;;
25079;SDS011;13071;48.868;9.996;2023-04-09T04:22:06;17.90;;;8.32;;
25079;SDS011;13071;48.868;9.996;2023-04-09T04:24:32;16.50;;;8.02;;
25079;SDS011;13071;48.868;9.996;2023-04-09T04:26:59;15.68;;;7.32;;
25079;SDS011;13071;48.868;9.996;2023-04-09T04:29:26;18.10;;;8.05;;
25079;SDS011;13071;48.868;9.996;2023-04-09T04:31:52;18.33;;;7.93;;
25079;SDS011;13071;48.868;9.996;2023-04-09T04:34:19;17.65;;;7.07;;
25079;SDS011;13071;48.868;9.996;2023-04-09T04:36:45;19.35;;;8.23;;
25079;SDS011;13071;48.868;9.996;2023-04-09T04:39:13;18.35;;;8.18;;
25079;SDS011;13071;48.868;9.996;2023-04-09T04:41:40;16.50;;;6.57;;
25079;SDS011;13071;48.868;9.996;2023-04-09T04:44:07;20.23;;;8.40;;
25079;SDS011;13071;48.868;9.996;2023-04-09T04:46:33;20.00;;;7.80;;
25079;SDS011;13071;48.868;9.996;2023-04-09T04:49:00;16.70;;;7.50;;
25079;SDS011;13071;48.868;9.996;2023-04-09T04:51:26;18.13;;;7.57;;
25079;SDS011;13071;48.868;9.996;2023-04-09T04:53:55;13.75;;;6.65;;
25079;SDS011;13071;48.868;9.996;2023-04-09T04:56:23;14.95;;;6.75;;
25079;SDS011;13071;48.868;9.996;2023-04-09T04:58:50;22.67;;;8.10;;
25079;SDS011;13071;48.868;9.996;2023-04-09T05:01:16;21.73;;;7.88;;
25079;SDS011;13071;48.868;9.996;2023-04-09T05:03:43;22.05;;;8.25;;
25079;SDS011;13071;48.868;9.996;2023-04-09T05:06:10;19.27;;;8.43;;
25079;SDS011;13071;48.868;9.996;2023-04-09T05:08:36;17.88;;;7.35;;
25079;SDS011;13071;48.868;9.996;2023-04-09T05:11:03;19.65;;;8.88;;
25079;SDS011;13071;48.868;9.996;2023-04-09T05:13:31;19.35;;;8.27;;
25079;SDS011;13071;48.868;9.996;2023-04-09T05:15:57;17.67;;;7.78;;
25079;SDS011;13071;48.868;9.996;2023-04-09T05:18:24;19.83;;;8.75;;
25079;SDS011;13071;48.868;9.996;2023-04-09T05:20:50;16.42;;;7.95;;
25079;SDS011;13071;48.868;9.996;2023-04-09T05:23:17;16.73;;;8.48;;
25079;SDS011;13071;48.868;9.996;2023-04-09T05:25:43;19.02;;;7.95;;
25079;SDS011;13071;48.868;9.996;2023-04-09T05:28:10;14.15;;;7.50;;
25079;SDS011;13071;48.868;9.996;2023-04-09T05:30:38;19.25;;;8.25;;
25079;SDS011;13071;48.868;9.996;2023-04-09T05:33:05;16.77;;;8.30;;
25079;SDS011;13071;48.868;9.996;2023-04-09T05:35:31;17.90;;;8.30;;
25079;SDS011;13071;48.868;9.996;2023-04-09T05:37:58;17.42;;;8.25;;
25079;SDS011;13071;48.868;9.996;2023-04-09T05:40:24;16.23;;;8.82;;
25079;SDS011;13071;48.868;9.996;2023-04-09T05:42:51;17.13;;;8.35;;
25079;SDS011;13071;48.868;9.996;2023-04-09T05:45:17;19.23;;;8.73;;
25079;SDS011;13071;48.868;9.996;2023-04-09T05:47:45;19.02;;;8.85;;
25079;SDS011;13071;48.868;9.996;2023-04-09T05:50:12;18.35;;;9.02;;
25079;SDS011;13071;48.868;9.996;2023-04-09T05:52:39;16.30;;;9.07;;
25079;SDS011;13071;48.868;9.996;2023-04-09T05:55:06;14.50;;;7.50;;
25079;SDS011;13071;48.868;9.996;2023-04-09T05:57:33;18.13;;;8.48;;
25079;SDS011;13071;48.868;9.996;2023-04-09T06:00:00;17.65;;;9.10;;
25079;SDS011;13071;48.868;9.996;2023-04-09T06:02:27;16.23;;;7.93;;
25079;SDS011;13071;48.868;9.996;2023-04-09T06:04:55;17.30;;;8.82;;
25079;SDS011;13071;48.868;9.996;2023-04-09T06:07:21;19.02;;;9.32;;
25079;SDS011;13071;48.868;9.996;2023-04-09T06:09:48;17.30;;;8.60;;
25079;SDS011;13071;48.868;9.996;2023-04-09T06:12:15;21.23;;;9.82;;
25079;SDS011;13071;48.868;9.996;2023-04-09T06:14:41;17.38;;;8.75;;
25079;SDS011;13071;48.868;9.996;2023-04-09T06:17:08;19.77;;;9.25;;
25079;SDS011;13071;48.868;9.996;2023-04-09T06:19:34;18.83;;;9.25;;
25079;SDS011;13071;48.868;9.996;2023-04-09T06:22:02;20.48;;;10.05;;
25079;SDS011;13071;48.868;9.996;2023-04-09T06:24:29;23.27;;;10.80;;
25079;SDS011;13071;48.868;9.996;2023-04-09T06:26:56;23.30;;;10.32;;
25079;SDS011;13071;48.868;9.996;2023-04-09T06:29:23;22.20;;;10.10;;
25079;SDS011;13071;48.868;9.996;2023-04-09T06:31:49;23.48;;;10.48;;
25079;SDS011;13071;48.868;9.996;2023-04-09T06:34:16;21.23;;;9.60;;
25079;SDS011;13071;48.868;9.996;2023-04-09T06:36:43;19.15;;;9.30;;
25079;SDS011;13071;48.868;9.996;2023-04-09T06:39:11;21.33;;;9.95;;
25079;SDS011;13071;48.868;9.996;2023-04-09T06:41:37;22.08;;;10.18;;
25079;SDS011;13071;48.868;9.996;2023-04-09T06:44:04;19.98;;;9.70;;
25079;SDS011;13071;48.868;9.996;2023-04-09T06:46:31;19.13;;;9.80;;
25079;SDS011;13071;48.868;9.996;2023-04-09T06:48:57;20.95;;;9.68;;
25079;SDS011;13071;48.868;9.996;2023-04-09T06:51:24;19.13;;;9.18;;
25079;SDS011;13071;48.868;9.996;2023-04-09T06:53:51;17.60;;;9.48;;
25079;SDS011;13071;48.868;9.996;2023-04-09T06:56:19;17.55;;;9.10;;
25079;SDS011;13071;48.868;9.996;2023-04-09T06:58:45;19.80;;;9.43;;
25079;SDS011;13071;48.868;9.996;2023-04-09T07:01:12;20.95;;;9.88;;
25079;SDS011;13071;48.868;9.996;2023-04-09T07:03:39;21.00;;;9.73;;
25079;SDS011;13071;48.868;9.996;2023-04-09T07:06:05;19.73;;;9.88;;
25079;SDS011;13071;48.868;9.996;2023-04-09T07:08:32;19.13;;;9.07;;
25079;SDS011;13071;48.868;9.996;2023-04-09T07:10:58;17.50;;;8.45;;
25079;SDS011;13071;48.868;9.996;2023-04-09T07:13:26;15.20;;;8.43;;
25079;SDS011;13071;48.868;9.996;2023-04-09T07:15:53;18.55;;;8.88;;
25079;SDS011;13071;48.868;9.996;2023-04-09T07:18:20;17.92;;;8.95;;
25079;SDS011;13071;48.868;9.996;2023-04-09T07:20:46;20.48;;;9.77;;
25079;SDS011;13071;48.868;9.996;2023-04-09T07:23:13;18.92;;;9.20;;
25079;SDS011;13071;48.868;9.996;2023-04-09T07:25:39;16.95;;;9.10;;
25079;SDS011;13071;48.868;9.996;2023-04-09T07:28:06;15.43;;;8.15;;
25079;SDS011;13071;48.868;9.996;2023-04-09T07:30:34;17.80;;;9.43;;
25079;SDS011;13071;48.868;9.996;2023-04-09T07:33:01;18.73;;;9.40;;
25079;SDS011;13071;48.868;9.996;2023-04-09T07:35:28;18.65;;;9.40;;
25079;SDS011;13071;48.868;9.996;2023-04-09T07:37:54;18.38;;;9.13;;
25079;SDS011;13071;48.868;9.996;2023-04-09T07:40:21;17.40;;;8.60;;
25079;SDS011;13071;48.868;9.996;2023-04-09T07:42:48;20.00;;;9.38;;
25079;SDS011;13071;48.868;9.996;2023-04-09T07:45:14;16.40;;;9.25;;
25079;SDS011;13071;48.868;9.996;2023-04-09T07:47:42;19.83;;;9.98;;
25079;SDS011;13071;48.868;9.996;2023-04-09T07:50:10;18.83;;;9.50;;
25079;SDS011;13071;48.868;9.996;2023-04-09T07:52:36;20.40;;;10.43;;
25079;SDS011;13071;48.868;9.996;2023-04-09T07:55:03;20.70;;;9.93;;
25079;SDS011;13071;48.868;9.996;2023-04-09T07:57:31;19.75;;;9.70;;
25079;SDS011;13071;48.868;9.996;2023-04-09T07:59:57;21.42;;;10.43;;
25079;SDS011;13071;48.868;9.996;2023-04-09T08:02:24;20.52;;;10.07;;
25079;SDS011;13071;48.868;9.996;2023-04-09T08:04:52;19.90;;;10.10;;
25079;SDS011;13071;48.868;9.996;2023-04-09T08:07:18;21.00;;;11.00;;
25079;SDS011;13071;48.868;9.996;2023-04-09T08:09:45;20.30;;;9.80;;
25079;SDS011;13071;48.868;9.996;2023-04-09T08:12:11;20.10;;;9.65;;
25079;SDS011;13071;48.868;9.996;2023-04-09T08:14:38;22.50;;;10.30;;
25079;SDS011;13071;48.868;9.996;2023-04-09T08:17:05;22.48;;;10.90;;
25079;SDS011;13071;48.868;9.996;2023-04-09T08:19:31;19.00;;;10.13;;
25079;SDS011;13071;48.868;9.996;2023-04-09T08:21:59;20.98;;;10.38;;
25079;SDS011;13071;48.868;9.996;2023-04-09T08:24:26;21.27;;;9.75;;
25079;SDS011;13071;48.868;9.996;2023-04-09T08:26:52;20.85;;;10.00;;
25079;SDS011;13071;48.868;9.996;2023-04-09T08:29:20;20.50;;;10.00;;
25079;SDS011;13071;48.868;9.996;2023-04-09T08:31:47;19.15;;;9.50;;
25079;SDS011;13071;48.868;9.996;2023-04-09T08:34:13;21.17;;;11.05;;
25079;SDS011;13071;48.868;9.996;2023-04-09T08:36:43;18.85;;;9.90;;
25079;SDS011;13071;48.868;9.996;2023-04-09T08:39:11;18.23;;;9.48;;
25079;SDS011;13071;48.868;9.996;2023-04-09T08:41:39;22.75;;;10.38;;
25079;SDS011;13071;48.868;9.996;2023-04-09T08:44:08;20.38;;;10.00;;
25079;SDS011;13071;48.868;9.996;2023-04-09T08:46:34;19.45;;;10.15;;
25079;SDS011;13071;48.868;9.996;2023-04-09T08:49:01;17.80;;;9.45;;
25079;SDS011;13071;48.868;9.996;2023-04-09T08:51:28;21.83;;;10.23;;
25079;SDS011;13071;48.868;9.996;2023-04-09T08:53:56;16.58;;;8.63;;
25079;SDS011;13071;48.868;9.996;2023-04-09T08:56:25;16.40;;;9.30;;
25079;SDS011;13071;48.868;9.996;2023-04-09T08:58:52;20.13;;;9.70;;
25079;SDS011;13071;48.868;9.996;2023-04-09T09:01:19;22.65;;;9.85;;
25079;SDS011;13071;48.868;9.996;2023-04-09T09:03:53;16.52;;;8.77;;
25079;SDS011;13071;48.868;9.996;2023-04-09T09:06:22;18.30;;;9.10;;
25079;SDS011;13071;48.868;9.996;2023-04-09T09:08:58;17.48;;;9.48;;
25079;SDS011;13071;48.868;9.996;2023-04-09T09:11:31;18.73;;;10.02;;
25079;SDS011;13071;48.868;9.996;2023-04-09T09:13:58;18.27;;;9.13;;
25079;SDS011;13071;48.868;9.996;2023-04-09T09:16:26;16.80;;;8.95;;
25079;SDS011;13071;48.868;9.996;2023-04-09T09:18:52;17.45;;;8.95;;
25079;SDS011;13071;48.868;9.996;2023-04-09T09:21:20;16.42;;;8.88;;
25079;SDS011;13071;48.868;9.996;2023-04-09T09:23:48;18.42;;;9.02;;
25079;SDS011;13071;48.868;9.996;2023-04-09T09:26:16;14.88;;;8.23;;
25079;SDS011;13071;48.868;9.996;2023-04-09T09:28:45;15.25;;;8.35;;
25079;SDS011;13071;48.868;9.996;2023-04-09T09:31:13;15.95;;;8.55;;
25079;SDS011;13071;48.868;9.996;2023-04-09T09:33:41;16.85;;;8.95;;
25079;SDS011;13071;48.868;9.996;2023-04-09T09:36:08;15.23;;;8.90;;
25079;SDS011;13071;48.868;9.996;2023-04-09T09:38:49;16.10;;;8.68;;
25079;SDS011;13071;48.868;9.996;2023-04-09T09:41:18;15.18;;;7.97;;
25079;SDS011;13071;48.868;9.996;2023-04-09T09:43:46;19.05;;;8.48;;
25079;SDS011;13071;48.868;9.996;2023-04-09T09:46:13;15.25;;;8.85;;
25079;SDS011;13071;48.868;9.996;2023-04-09T09:48:40;15.73;;;8.48;;
25079;SDS011;13071;48.868;9.996;2023-04-09T09:51:08;15.23;;;8.43;;
25079;SDS011;13071;48.868;9.996;2023-04-09T09:53:36;15.65;;;9.13;;
25079;SDS011;13071;48.868;9.996;2023-04-09T09:56:04;17.15;;;8.73;;
25079;SDS011;13071;48.868;9.996;2023-04-09T09:58:32;13.25;;;7.70;;
25079;SDS011;13071;48.868;9.996;2023-04-09T10:01:06;12.13;;;6.80;;
25079;SDS011;13071;48.868;9.996;2023-04-09T10:03:34;12.10;;;6.47;;
25079;SDS011;13071;48.868;9.996;2023-04-09T10:06:03;13.75;;;7.47;;
25079;SDS011;13071;48.868;9.996;2023-04-09T10:08:30;11.60;;;6.88;;
25079;SDS011;13071;48.868;9.996;2023-04-09T10:11:00;11.23;;;6.38;;
25079;SDS011;13071;48.868;9.996;2023-04-09T10:13:28;10.35;;;5.78;;
25079;SDS011;13071;48.868;9.996;2023-04-09T10:15:59;11.13;;;6.20;;
25079;SDS011;13071;48.868;9.996;2023-04-09T10:18:27;9.50;;;5.47;;
25079;SDS011;13071;48.868;9.996;2023-04-09T10:20:57;13.32;;;6.95;;
25079;SDS011;13071;48.868;9.996;2023-04-09T10:23:30;11.38;;;6.43;;
25079;SDS011;13071;48.868;9.996;2023-04-09T10:26:01;9.48;;;5.90;;
25079;SDS011;13071;48.868;9.996;2023-04-09T10:28:28;12.25;;;6.10;;
25079;SDS011;13071;48.868;9.996;2023-04-09T10:30:55;8.98;;;5.30;;
25079;SDS011;13071;48.868;9.996;2023-04-09T10:33:24;8.73;;;5.38;;
25079;SDS011;13071;48.868;9.996;2023-04-09T10:35:53;10.05;;;5.85;;
25079;SDS011;13071;48.868;9.996;2023-04-09T10:38:34;8.80;;;5.03;;
25079;SDS011;13071;48.868;9.996;2023-04-09T10:41:05;9.70;;;5.28;;
25079;SDS011;13071;48.868;9.996;2023-04-09T10:43:38;9.80;;;5.70;;
25079;SDS011;13071;48.868;9.996;2023-04-09T10:46:06;10.77;;;5.82;;
25079;SDS011;13071;48.868;9.996;2023-04-09T10:48:56;7.65;;;4.70;;
25079;SDS011;13071;48.868;9.996;2023-04-09T10:51:35;11.98;;;5.68;;
25079;SDS011;13071;48.868;9.996;2023-04-09T10:54:02;8.82;;;5.20;;
25079;SDS011;13071;48.868;9.996;2023-04-09T10:56:29;9.48;;;5.25;;
25079;SDS011;13071;48.868;9.996;2023-04-09T10:58:56;8.07;;;4.85;;
25079;SDS011;13071;48.868;9.996;2023-04-09T11:01:23;7.20;;;4.38;;
25079;SDS011;13071;48.868;9.996;2023-04-09T11:04:05;7.43;;;4.45;;
25079;SDS011;13071;48.868;9.996;2023-04-09T11:06:35;8.07;;;4.70;;
25079;SDS011;13071;48.868;9.996;2023-04-09T11:09:05;7.57;;;4.43;;
25079;SDS011;13071;48.868;9.996;2023-04-09T11:11:32;8.90;;;4.97;;
25079;SDS011;13071;48.868;9.996;2023-04-09T11:13:59;7.53;;;4.32;;
25079;SDS011;13071;48.868;9.996;2023-04-09T11:16:27;7.45;;;4.68;;
25079;SDS011;13071;48.868;9.996;2023-04-09T11:18:54;9.70;;;5.13;;
25079;SDS011;13071;48.868;9.996;2023-04-09T11:21:22;8.68;;;5.05;;
25079;SDS011;13071;48.868;9.996;2023-04-09T11:23:53;7.88;;;4.95;;
25079;SDS011;13071;48.868;9.996;2023-04-09T11:26:24;10.10;;;5.43;;
25079;SDS011;13071;48.868;9.996;2023-04-09T11:28:54;8.70;;;5.25;;
25079;SDS011;13071;48.868;9.996;2023-04-09T11:31:25;10.95;;;6.22;;
25079;SDS011;13071;48.868;9.996;2023-04-09T11:33:53;9.93;;;5.82;;
25079;SDS011;13071;48.868;9.996;2023-04-09T11:36:20;10.48;;;6.53;;
25079;SDS011;13071;48.868;9.996;2023-04-09T11:38:46;9.52;;;5.70;;
25079;SDS011;13071;48.868;9.996;2023-04-09T11:41:15;10.70;;;5.80;;
25079;SDS011;13071;48.868;9.996;2023-04-09T11:43:41;11.25;;;6.40;;
25079;SDS011;13071;48.868;9.996;2023-04-09T11:46:08;12.93;;;6.60;;
25079;SDS011;13071;48.868;9.996;2023-04-09T11:48:35;12.60;;;6.55;;
25079;SDS011;13071;48.868;9.996;2023-04-09T11:51:02;11.93;;;6.35;;
25079;SDS011;13071;48.868;9.996;2023-04-09T11:53:29;9.07;;;4.78;;
25079;SDS011;13071;48.868;9.996;2023-04-09T11:55:56;8.55;;;4.93;;
25079;SDS011;13071;48.868;9.996;2023-04-09T11:58:25;9.63;;;5.38;;
25079;SDS011;13071;48.868;9.996;2023-04-09T12:00:52;8.25;;;5.15;;
25079;SDS011;13071;48.868;9.996;2023-04-09T12:03:26;12.23;;;6.90;;
25079;SDS011;13071;48.868;9.996;2023-04-09T12:05:54;14.77;;;7.43;;
25079;SDS011;13071;48.868;9.996;2023-04-09T12:08:21;12.73;;;6.95;;
25079;SDS011;13071;48.868;9.996;2023-04-09T12:10:48;8.85;;;4.95;;
25079;SDS011;13071;48.868;9.996;2023-04-09T12:13:16;9.55;;;5.68;;
25079;SDS011;13071;48.868;9.996;2023-04-09T12:15:44;10.43;;;5.60;;
25079;SDS011;13071;48.868;9.996;2023-04-09T12:18:11;9.98;;;5.20;;
25079;SDS011;13071;48.868;9.996;2023-04-09T12:20:39;8.43;;;5.40;;
25079;SDS011;13071;48.868;9.996;2023-04-09T12:23:08;11.45;;;6.50;;
25079;SDS011;13071;48.868;9.996;2023-04-09T12:25:36;9.85;;;6.50;;
25079;SDS011;13071;48.868;9.996;2023-04-09T12:28:05;9.85;;;5.90;;
25079;SDS011;13071;48.868;9.996;2023-04-09T12:30:33;10.32;;;5.72;;
25079;SDS011;13071;48.868;9.996;2023-04-09T12:33:01;11.52;;;6.32;;
25079;SDS011;13071;48.868;9.996;2023-04-09T12:35:28;10.63;;;6.30;;
25079;SDS011;13071;48.868;9.996;2023-04-09T12:37:55;9.27;;;5.45;;
25079;SDS011;13071;48.868;9.996;2023-04-09T12:40:23;9.82;;;5.35;;
25079;SDS011;13071;48.868;9.996;2023-04-09T12:42:50;10.30;;;5.35;;
25079;SDS011;13071;48.868;9.996;2023-04-09T12:45:17;11.75;;;6.28;;
25079;SDS011;13071;48.868;9.996;2023-04-09T12:47:45;11.30;;;6.38;;
25079;SDS011;13071;48.868;9.996;2023-04-09T12:50:13;11.30;;;6.22;;
25079;SDS011;13071;48.868;9.996;2023-04-09T12:52:40;14.18;;;6.75;;
25079;SDS011;13071;48.868;9.996;2023-04-09T12:55:08;11.32;;;6.45;;
25079;SDS011;13071;48.868;9.996;2023-04-09T12:57:35;11.57;;;6.05;;
25079;SDS011;13071;48.868;9.996;2023-04-09T13:00:02;10.38;;;6.07;;
25079;SDS011;13071;48.868;9.996;2023-04-09T13:02:30;13.05;;;6.38;;
25079;SDS011;13071;48.868;9.996;2023-04-09T13:04:57;10.35;;;6.07;;
25079;SDS011;13071;48.868;9.996;2023-04-09T13:07:25;11.40;;;6.10;;
25079;SDS011;13071;48.868;9.996;2023-04-09T13:09:53;10.27;;;5.70;;
25079;SDS011;13071;48.868;9.996;2023-04-09T13:12:20;12.85;;;6.40;;
25079;SDS011;13071;48.868;9.996;2023-04-09T13:14:47;10.40;;;5.72;;
25079;SDS011;13071;48.868;9.996;2023-04-09T13:17:14;10.05;;;5.80;;
25079;SDS011;13071;48.868;9.996;2023-04-09T13:19:41;14.52;;;5.82;;
25079;SDS011;13071;48.868;9.996;2023-04-09T13:22:07;9.60;;;5.38;;
25079;SDS011;13071;48.868;9.996;2023-04-09T13:24:36;8.00;;;4.85;;
25079;SDS011;13071;48.868;9.996;2023-04-09T13:27:03;9.23;;;5.45;;
25079;SDS011;13071;48.868;9.996;2023-04-09T13:29:30;7.40;;;4.63;;
25079;SDS011;13071;48.868;9.996;2023-04-09T13:31:57;7.13;;;4.85;;
25079;SDS011;13071;48.868;9.996;2023-04-09T13:34:26;7.70;;;4.65;;
25079;SDS011;13071;48.868;9.996;2023-04-09T13:36:53;6.60;;;4.07;;
25079;SDS011;13071;48.868;9.996;2023-04-09T13:39:19;8.90;;;5.35;;
25079;SDS011;13071;48.868;9.996;2023-04-09T13:41:47;12.75;;;6.72;;
25079;SDS011;13071;48.868;9.996;2023-04-09T13:44:14;10.40;;;5.90;;
25079;SDS011;13071;48.868;9.996;2023-04-09T13:46:40;10.82;;;6.15;;
25079;SDS011;13071;48.868;9.996;2023-04-09T13:49:07;9.38;;;5.22;;
25079;SDS011;13071;48.868;9.996;2023-04-09T13:51:34;8.88;;;5.10;;
25079;SDS011;13071;48.868;9.996;2023-04-09T13:54:00;6.72;;;4.38;;
25079;SDS011;13071;48.868;9.996;2023-04-09T13:56:28;8.82;;;5.05;;
25079;SDS011;13071;48.868;9.996;2023-04-09T13:58:56;6.10;;;3.85;;
25079;SDS011;13071;48.868;9.996;2023-04-09T14:01:23;7.20;;;4.50;;
25079;SDS011;13071;48.868;9.996;2023-04-09T14:03:51;6.95;;;3.97;;
25079;SDS011;13071;48.868;9.996;2023-04-09T14:06:18;8.38;;;5.63;;
25079;SDS011;13071;48.868;9.996;2023-04-09T14:08:44;10.20;;;6.25;;
25079;SDS011;13071;48.868;9.996;2023-04-09T14:11:11;10.75;;;6.00;;
25079;SDS011;13071;48.868;9.996;2023-04-09T14:13:40;11.82;;;7.07;;
25079;SDS011;13071;48.868;9.996;2023-04-09T14:16:08;11.27;;;6.30;;
25079;SDS011;13071;48.868;9.996;2023-04-09T14:18:35;10.20;;;6.22;;
25079;SDS011;13071;48.868;9.996;2023-04-09T14:21:03;11.50;;;5.95;;
25079;SDS011;13071;48.868;9.996;2023-04-09T14:23:30;12.18;;;6.43;;
25079;SDS011;13071;48.868;9.996;2023-04-09T14:25:57;12.05;;;5.88;;
25079;SDS011;13071;48.868;9.996;2023-04-09T14:28:23;8.95;;;5.38;;
25079;SDS011;13071;48.868;9.996;2023-04-09T14:30:50;9.13;;;5.82;;
25079;SDS011;13071;48.868;9.996;2023-04-09T14:33:18;10.40;;;5.43;;
25079;SDS011;13071;48.868;9.996;2023-04-09T14:35:45;9.32;;;5.03;;
25079;SDS011;13071;48.868;9.996;2023-04-09T14:38:11;8.50;;;5.00;;